Time;durP1;ratioP1;P1;durP2;ratioP2;P2;SDS_P1;SDS_P2;PMS_P1;PMS_P2;Temp;Humidity;BMP_temperature;BMP_pressure;BME280_temperature;BME280_humidity;BME280_pressure;Samples;Min_cycle;Max_cycle;Signal;HPM_P1;HPM_P2
2023/06/30 00:00:41;;;;;;;25.95;16.00;;;;;;;18.86;100.00;100290.31;6150028;28;20054;-91
2023/06/30 00:03:45;;;;;;;28.63;16.88;;;;;;;18.88;100.00;100285.72;6138976;28;20109;-93
2023/06/30 00:06:49;;;;;;;28.60;16.67;;;;;;;18.90;100.00;100281.06;6150597;28;20051;-92
2023/06/30 00:09:52;;;;;;;27.83;16.05;;;;;;;18.90;100.00;100281.06;6146565;28;20042;-92
2023/06/30 00:12:53;;;;;;;29.27;16.77;;;;;;;18.91;100.00;100282.72;6146879;28;20151;-92
2023/06/30 00:15:55;;;;;;;29.63;16.83;;;;;;;18.91;100.00;100279.28;6152647;28;20467;-91
2023/06/30 00:18:58;;;;;;;30.10;16.58;;;;;;;18.90;100.00;100278.44;6144136;28;20043;-91
2023/06/30 00:21:59;;;;;;;30.40;17.48;;;;;;;18.90;100.00;100275.81;6138670;28;20043;-91
2023/06/30 00:25:02;;;;;;;31.52;18.42;;;;;;;18.86;100.00;100266.72;6136961;28;20378;-91
2023/06/30 00:28:03;;;;;;;32.17;17.85;;;;;;;18.83;100.00;100276.75;6141835;28;20413;-91
2023/06/30 00:31:07;;;;;;;31.52;17.77;;;;;;;18.83;100.00;100277.56;6141498;28;20043;-91
2023/06/30 00:34:09;;;;;;;34.47;18.90;;;;;;;18.86;100.00;100271.16;6140003;28;20035;-91
2023/06/30 00:37:12;;;;;;;31.38;18.70;;;;;;;18.89;100.00;100281.28;6150941;28;20035;-91
2023/06/30 00:40:15;;;;;;;31.10;17.80;;;;;;;18.90;100.00;100283.69;6143420;28;20055;-91
2023/06/30 00:43:17;;;;;;;29.30;17.80;;;;;;;18.89;100.00;100273.41;6136721;28;20126;-90
2023/06/30 00:46:21;;;;;;;34.75;18.77;;;;;;;18.91;100.00;100258.31;6126468;28;20054;-91
2023/06/30 00:49:23;;;;;;;30.58;18.42;;;;;;;18.88;100.00;100262.09;6144019;28;20116;-91
2023/06/30 00:52:25;;;;;;;32.45;18.38;;;;;;;18.88;100.00;100258.66;6158630;28;20130;-91
2023/06/30 00:55:27;;;;;;;35.78;19.48;;;;;;;18.86;100.00;100248.34;6143923;28;20095;-91
2023/06/30 00:58:29;;;;;;;32.20;18.77;;;;;;;18.84;100.00;100252.97;6138593;28;20051;-91
2023/06/30 01:01:46;;;;;;;34.50;20.05;;;;;;;18.80;100.00;100259.56;6141608;28;20546;-92
2023/06/30 01:05:30;;;;;;;34.65;19.05;;;;;;;18.86;100.00;100258.03;6137488;28;20351;-91
2023/06/30 01:08:51;;;;;;;33.38;18.80;;;;;;;18.86;100.00;100258.84;6130987;28;20043;-91
2023/06/30 01:11:53;;;;;;;35.22;19.70;;;;;;;18.89;100.00;100262.91;6142322;28;20034;-91
2023/06/30 01:14:56;;;;;;;36.45;20.02;;;;;;;18.95;100.00;100254.31;6149148;28;20036;-91
2023/06/30 01:18:00;;;;;;;37.03;20.42;;;;;;;19.00;100.00;100261.63;6140376;28;20573;-91
2023/06/30 01:21:06;;;;;;;35.03;20.02;;;;;;;19.00;100.00;100261.63;6142385;28;20114;-91
2023/06/30 01:24:11;;;;;;;35.90;20.45;;;;;;;19.03;100.00;100259.47;6140712;28;20420;-91
2023/06/30 01:27:14;;;;;;;34.70;20.35;;;;;;;19.04;100.00;100268.16;6136408;28;20049;-91
2023/06/30 01:30:18;;;;;;;40.15;20.98;;;;;;;19.02;100.00;100260.44;6155090;28;20045;-92
2023/06/30 01:33:22;;;;;;;38.10;20.63;;;;;;;19.07;100.00;100262.53;6141203;28;20179;-92
2023/06/30 01:36:24;;;;;;;37.63;21.05;;;;;;;19.05;100.00;100256.66;6147512;28;20046;-90
2023/06/30 01:39:26;;;;;;;35.78;21.20;;;;;;;18.98;100.00;100264.44;6141363;28;20603;-90
2023/06/30 01:42:28;;;;;;;37.03;21.05;;;;;;;19.02;100.00;100259.66;6145905;28;20166;-92
2023/06/30 01:45:30;;;;;;;39.33;21.25;;;;;;;19.01;100.00;100258.03;6131751;28;20070;-90
2023/06/30 01:48:33;;;;;;;36.53;21.70;;;;;;;18.94;100.00;100257.94;6139329;28;20520;-90
2023/06/30 01:51:35;;;;;;;38.25;22.08;;;;;;;18.91;100.00;100255.69;6141411;28;20054;-90
2023/06/30 01:54:37;;;;;;;38.17;22.08;;;;;;;18.96;100.00;100255.94;6141716;28;20047;-90
2023/06/30 01:57:39;;;;;;;35.33;21.75;;;;;;;18.96;100.00;100255.94;6148318;28;20521;-90
2023/06/30 02:00:41;;;;;;;39.00;21.95;;;;;;;18.90;100.00;100257.47;6119056;29;20421;-91
2023/06/30 02:03:42;;;;;;;39.30;22.17;;;;;;;18.90;100.00;100249.59;6146420;28;20055;-90
2023/06/30 02:06:44;;;;;;;43.60;22.63;;;;;;;18.91;100.00;100247.81;6137396;28;20529;-88
2023/06/30 02:09:46;;;;;;;39.45;22.70;;;;;;;18.84;100.00;100254.78;6141771;28;20047;-90
2023/06/30 02:12:49;;;;;;;42.35;20.90;;;;;;;18.82;100.00;100257.56;6145040;28;20043;-90
2023/06/30 02:15:52;;;;;;;39.33;22.25;;;;;;;18.85;100.00;100253.78;6142101;28;20055;-91
2023/06/30 02:18:55;;;;;;;41.42;21.38;;;;;;;18.94;100.00;100260.56;6146796;28;20057;-91
2023/06/30 02:21:57;;;;;;;38.30;20.50;;;;;;;18.92;100.00;100252.06;6149536;28;20043;-90
2023/06/30 02:25:00;;;;;;;36.72;21.40;;;;;;;18.93;100.00;100254.50;6141074;28;20039;-91
2023/06/30 02:28:02;;;;;;;38.00;20.95;;;;;;;18.83;100.00;100253.97;6132260;28;20043;-90
2023/06/30 02:31:04;;;;;;;34.13;18.95;;;;;;;18.83;100.00;100261.00;6141978;28;20047;-91
2023/06/30 02:34:08;;;;;;;34.67;19.63;;;;;;;18.79;100.00;100260.56;6147102;28;20122;-90
2023/06/30 02:37:10;;;;;;;35.53;18.08;;;;;;;18.78;100.00;100266.81;6143419;28;20058;-90
2023/06/30 02:40:11;;;;;;;30.23;17.20;;;;;;;18.78;100.00;100260.72;6134808;28;20043;-90
2023/06/30 02:43:13;;;;;;;30.80;16.73;;;;;;;18.78;100.00;100263.34;6131069;28;20039;-90
2023/06/30 02:46:15;;;;;;;31.63;17.48;;;;;;;18.70;100.00;100270.28;6132879;28;20138;-89
2023/06/30 02:49:17;;;;;;;30.40;17.00;;;;;;;18.61;100.00;100274.00;6126998;28;20040;-89
2023/06/30 02:52:19;;;;;;;25.67;15.25;;;;;;;18.59;100.00;100264.69;6134140;28;20591;-90
2023/06/30 02:55:21;;;;;;;22.85;14.30;;;;;;;18.52;100.00;100252.28;6139191;28;20462;-90
2023/06/30 02:58:24;;;;;;;23.90;12.13;;;;;;;18.44;100.00;100256.81;6135696;28;20047;-93
2023/06/30 03:01:28;;;;;;;26.17;12.40;;;;;;;18.40;100.00;100260.78;6136460;28;20078;-89
2023/06/30 03:04:31;;;;;;;19.52;11.93;;;;;;;18.42;100.00;100254.38;6140752;28;20046;-90
2023/06/30 03:07:34;;;;;;;19.27;12.20;;;;;;;18.47;100.00;100254.63;6148168;28;20073;-88
2023/06/30 03:10:37;;;;;;;17.58;10.25;;;;;;;18.44;100.00;100246.34;6144621;28;20054;-90
2023/06/30 03:13:40;;;;;;;21.00;10.60;;;;;;;18.41;100.00;100251.91;6137457;28;20388;-90
2023/06/30 03:16:42;;;;;;;20.40;9.88;;;;;;;18.46;100.00;100247.78;6134820;28;20237;-89
2023/06/30 03:19:45;;;;;;;15.73;9.43;;;;;;;18.49;100.00;100255.28;6134291;28;20050;-90
2023/06/30 03:22:47;;;;;;;15.95;8.40;;;;;;;18.50;100.00;100254.28;6135343;28;20044;-89
2023/06/30 03:25:49;;;;;;;12.73;7.70;;;;;;;18.44;100.00;100248.97;6129353;28;20055;-91
2023/06/30 03:28:51;;;;;;;13.95;7.75;;;;;;;18.41;100.00;100265.00;6137100;28;20126;-89
2023/06/30 03:31:53;;;;;;;13.27;6.32;;;;;;;18.40;100.00;100268.63;6136904;28;20126;-89
2023/06/30 03:34:54;;;;;;;10.45;6.35;;;;;;;18.42;100.00;100264.03;6130515;28;20089;-89
2023/06/30 03:38:00;;;;;;;12.98;6.28;;;;;;;18.42;100.00;100254.38;6132266;28;20413;-91
2023/06/30 03:41:02;;;;;;;12.45;5.75;;;;;;;18.40;100.00;100252.91;6144903;28;20047;-91
2023/06/30 03:44:05;;;;;;;9.18;5.22;;;;;;;18.42;100.00;100250.94;6141302;28;20040;-88
2023/06/30 03:47:07;;;;;;;8.55;4.50;;;;;;;18.37;100.00;100258.53;6138263;28;20159;-91
2023/06/30 03:50:09;;;;;;;8.93;4.22;;;;;;;18.29;100.00;100254.97;6129644;28;20130;-90
2023/06/30 03:53:11;;;;;;;6.28;3.40;;;;;;;18.23;100.00;100255.69;6136784;28;20043;-89
2023/06/30 03:56:13;;;;;;;4.80;3.30;;;;;;;18.21;100.00;100257.69;6143348;28;20417;-90
2023/06/30 03:59:14;;;;;;;5.75;3.78;;;;;;;18.14;100.00;100248.09;6136817;28;20110;-89
2023/06/30 04:02:16;;;;;;;5.65;2.75;;;;;;;18.07;100.00;100246.16;6145364;28;20048;-89
2023/06/30 04:05:18;;;;;;;6.57;3.50;;;;;;;18.03;100.00;100255.38;6139862;28;20062;-90
2023/06/30 04:08:20;;;;;;;5.30;3.42;;;;;;;18.09;100.00;100246.00;6136687;28;20039;-90
2023/06/30 04:11:21;;;;;;;10.25;4.65;;;;;;;18.02;100.00;100258.19;6139779;28;20086;-91
2023/06/30 04:14:23;;;;;;;9.13;4.30;;;;;;;18.00;100.00;100258.34;6127997;28;20039;-92
2023/06/30 04:17:25;;;;;;;5.85;4.10;;;;;;;18.01;100.00;100261.78;6132910;28;20074;-91
2023/06/30 04:20:27;;;;;;;9.45;4.13;;;;;;;18.00;100.00;100257.53;6138217;28;20461;-91
2023/06/30 04:23:28;;;;;;;7.05;3.53;;;;;;;18.00;100.00;100254.91;6137380;28;20653;-91
2023/06/30 04:26:31;;;;;;;8.05;3.78;;;;;;;17.93;100.00;100249.56;6138641;29;20062;-90
2023/06/30 04:29:32;;;;;;;9.02;3.80;;;;;;;17.78;100.00;100253.91;6134783;28;20043;-89
2023/06/30 04:32:35;;;;;;;5.60;4.10;;;;;;;17.61;100.00;100242.72;6139975;28;20035;-89
2023/06/30 04:35:36;;;;;;;6.68;3.47;;;;;;;17.43;100.00;100253.47;6142778;28;20054;-88
2023/06/30 04:38:39;;;;;;;6.53;3.72;;;;;;;17.32;100.00;100256.50;6142184;28;20043;-91
2023/06/30 04:41:41;;;;;;;5.82;3.67;;;;;;;17.26;100.00;100263.19;6156095;28;20468;-89
2023/06/30 04:44:43;;;;;;;5.60;4.05;;;;;;;17.30;100.00;100263.69;6148601;28;20071;-89
2023/06/30 04:47:44;;;;;;;9.60;3.95;;;;;;;17.31;100.00;100273.16;6166302;28;20051;-88
2023/06/30 04:50:46;;;;;;;6.45;4.03;;;;;;;17.33;100.00;100294.75;6139138;28;20449;-89
2023/06/30 04:53:48;;;;;;;7.57;4.53;;;;;;;17.34;100.00;100302.44;6158355;28;20069;-90
2023/06/30 04:56:49;;;;;;;8.77;4.00;;;;;;;17.29;100.00;100309.13;6137014;28;20758;-85
2023/06/30 04:59:54;;;;;;;10.05;4.18;;;;;;;17.24;100.00;100312.25;6150298;28;20126;-84
2023/06/30 05:02:58;;;;;;;10.43;4.63;;;;;;;17.08;100.00;100310.53;6143063;28;20418;-84
2023/06/30 05:06:00;;;;;;;8.68;4.35;;;;;;;16.98;100.00;100308.09;6145654;28;20058;-86
2023/06/30 05:09:02;;;;;;;4.85;4.05;;;;;;;16.95;100.00;100299.78;6144377;28;20424;-88
2023/06/30 05:12:04;;;;;;;8.95;4.97;;;;;;;16.93;100.00;100296.53;6151009;28;20440;-88
2023/06/30 05:15:07;;;;;;;8.32;4.28;;;;;;;16.91;100.00;100301.09;6157987;28;20137;-88
2023/06/30 05:18:09;;;;;;;5.90;4.35;;;;;;;16.90;100.00;100304.72;6145597;28;20086;-89
2023/06/30 05:21:11;;;;;;;11.38;4.07;;;;;;;17.19;100.00;100298.88;6145914;28;20142;-89
2023/06/30 05:24:13;;;;;;;10.40;4.68;;;;;;;17.20;100.00;100303.13;6145473;28;20050;-89
2023/06/30 05:27:15;;;;;;;10.63;4.93;;;;;;;17.13;100.00;100297.75;6149023;28;20615;-89
2023/06/30 05:30:17;;;;;;;16.13;5.18;;;;;;;17.08;100.00;100289.59;6142878;28;20051;-89
2023/06/30 05:33:19;;;;;;;8.10;5.97;;;;;;;17.01;100.00;100292.06;6144712;28;20342;-89
2023/06/30 05:36:21;;;;;;;9.95;5.28;;;;;;;17.01;100.00;100306.94;6135433;28;20055;-89
2023/06/30 05:39:23;;;;;;;6.93;5.32;;;;;;;17.08;100.00;100307.09;6141626;28;20101;-89
2023/06/30 05:42:25;;;;;;;15.00;6.75;;;;;;;17.14;100.00;100301.19;6145466;28;20043;-89
2023/06/30 05:45:27;;;;;;;9.00;5.72;;;;;;;17.19;100.00;100302.31;6146102;28;20062;-89
2023/06/30 05:48:28;;;;;;;8.48;6.88;;;;;;;17.29;100.00;100306.53;6143333;28;20521;-89
2023/06/30 05:51:30;;;;;;;10.82;6.90;;;;;;;17.22;100.00;100320.28;6139982;28;20050;-89
2023/06/30 05:54:32;;;;;;;13.68;6.70;;;;;;;17.22;100.00;100322.91;6140803;28;20036;-89
2023/06/30 05:57:34;;;;;;;12.30;7.78;;;;;;;17.17;100.00;100322.59;6150132;28;20486;-89
2023/06/30 06:00:36;;;;;;;11.65;7.75;;;;;;;17.19;100.00;100314.56;6135100;28;20043;-90
2023/06/30 06:03:38;;;;;;;12.50;8.73;;;;;;;17.11;100.00;100312.00;6143543;28;20512;-89
2023/06/30 06:06:41;;;;;;;12.77;8.60;;;;;;;17.08;100.00;100309.72;6144335;28;20080;-89
2023/06/30 06:09:42;;;;;;;15.13;8.90;;;;;;;17.13;100.00;100325.72;6125646;28;20051;-89
2023/06/30 06:12:45;;;;;;;16.80;8.32;;;;;;;17.00;100.00;100321.03;6143823;28;20040;-89
2023/06/30 06:15:47;;;;;;;12.73;8.52;;;;;;;16.98;100.00;100323.00;6148638;28;20035;-89
2023/06/30 06:18:50;;;;;;;15.30;9.07;;;;;;;16.91;100.00;100327.25;6132145;28;20712;-88
2023/06/30 06:21:51;;;;;;;11.43;8.05;;;;;;;16.89;100.00;100337.06;6133403;28;20281;-89
2023/06/30 06:24:53;;;;;;;15.00;8.18;;;;;;;16.83;100.00;100338.53;6139783;28;20047;-88
2023/06/30 06:27:55;;;;;;;16.67;8.57;;;;;;;16.71;100.00;100337.22;6139597;28;20097;-89
2023/06/30 06:30:57;;;;;;;17.67;8.70;;;;;;;16.72;100.00;100331.84;6139812;28;20229;-89
2023/06/30 06:33:59;;;;;;;13.05;8.90;;;;;;;16.74;100.00;100342.97;6136745;28;20058;-89
2023/06/30 06:37:01;;;;;;;13.75;9.48;;;;;;;16.74;100.00;100339.50;6135966;28;20097;-89
2023/06/30 06:40:03;;;;;;;18.08;9.07;;;;;;;16.70;100.00;100340.84;6141719;28;20047;-89
2023/06/30 06:43:05;;;;;;;13.65;8.55;;;;;;;16.73;100.00;100340.50;6144531;28;20054;-89
2023/06/30 06:46:07;;;;;;;13.10;8.73;;;;;;;16.73;100.00;100345.72;6137454;28;20051;-89
2023/06/30 06:49:09;;;;;;;13.02;9.07;;;;;;;16.78;100.00;100349.50;6134618;28;20050;-89
2023/06/30 06:52:11;;;;;;;12.98;8.77;;;;;;;16.78;100.00;100343.47;6142573;28;20426;-88
2023/06/30 06:55:13;;;;;;;14.60;8.57;;;;;;;16.84;100.00;100341.97;6149757;28;20043;-88
2023/06/30 06:58:16;;;;;;;14.77;8.57;;;;;;;16.93;100.00;100341.78;6147863;28;20043;-88
2023/06/30 07:01:17;;;;;;;17.48;9.32;;;;;;;17.05;100.00;100328.38;6138697;28;20433;-88
2023/06/30 07:04:19;;;;;;;13.90;8.57;;;;;;;17.15;100.00;100329.00;6134943;28;20552;-89
2023/06/30 07:07:21;;;;;;;15.20;9.32;;;;;;;17.25;100.00;100326.97;6130882;28;20066;-88
2023/06/30 07:10:23;;;;;;;13.63;8.77;;;;;;;17.46;100.00;100326.38;6146267;28;20134;-88
2023/06/30 07:13:25;;;;;;;12.77;8.77;;;;;;;17.69;100.00;100331.69;6144424;28;20046;-88
2023/06/30 07:16:27;;;;;;;14.45;9.70;;;;;;;17.79;100.00;100332.28;6146055;28;20718;-88
2023/06/30 07:19:29;;;;;;;11.40;8.23;;;;;;;17.82;100.00;100331.16;6145903;28;20047;-88
2023/06/30 07:22:32;;;;;;;13.68;9.13;;;;;;;17.87;100.00;100331.44;6143301;28;20062;-88
2023/06/30 07:25:34;;;;;;;11.52;7.60;;;;;;;17.98;100.00;100330.22;6140944;28;20051;-88
2023/06/30 07:28:36;;;;;;;12.32;9.32;;;;;;;18.16;100.00;100329.91;6145312;28;20043;-88
2023/06/30 07:31:38;;;;;;;12.05;8.80;;;;;;;18.22;100.00;100327.44;6136880;28;20501;-88
2023/06/30 07:34:40;;;;;;;11.40;8.50;;;;;;;18.33;100.00;100333.22;6138929;28;20126;-88
2023/06/30 07:37:42;;;;;;;11.35;8.57;;;;;;;18.45;100.00;100321.34;6140217;28;20051;-89
2023/06/30 07:40:44;;;;;;;13.65;8.93;;;;;;;18.63;100.00;100305.28;6137759;28;20766;-92
2023/06/30 07:43:56;;;;;;;12.93;8.90;;;;;;;18.79;100.00;100309.59;6125099;28;20058;-89
2023/06/30 07:46:58;;;;;;;12.32;8.90;;;;;;;18.92;100.00;100313.19;6149102;28;20050;-89
2023/06/30 07:50:10;;;;;;;13.73;8.75;;;;;;;18.95;100.00;100322.50;6137268;28;20051;-88
2023/06/30 07:53:12;;;;;;;12.27;7.68;;;;;;;18.90;100.00;100324.84;6136700;28;20122;-88
2023/06/30 07:56:13;;;;;;;6.30;5.70;;;;;;;18.84;100.00;100323.78;6146187;28;20042;-88
2023/06/30 07:59:15;;;;;;;7.40;5.75;;;;;;;18.81;100.00;100320.72;6160782;28;20038;-89
2023/06/30 08:02:17;;;;;;;7.25;5.82;;;;;;;18.79;100.00;100325.31;6147230;28;20372;-88
2023/06/30 08:05:19;;;;;;;8.23;5.68;;;;;;;18.78;100.00;100326.28;6120657;28;20043;-89
2023/06/30 08:08:21;;;;;;;11.57;7.43;;;;;;;18.93;100.00;100320.09;6137314;28;20051;-89
2023/06/30 08:11:23;;;;;;;9.05;6.95;;;;;;;19.25;100.00;100320.66;6140249;28;20039;-89
2023/06/30 08:14:26;;;;;;;10.77;7.13;;;;;;;19.80;100.00;100331.66;6137823;28;20039;-89
2023/06/30 08:17:28;;;;;;;8.38;6.72;;;;;;;20.25;100.00;100337.53;6144796;28;20065;-88
2023/06/30 08:20:49;;;;;;;6.75;6.10;;;;;;;20.50;100.00;100322.16;6136951;28;20383;-89
2023/06/30 08:23:52;;;;;;;7.28;5.95;;;;;;;20.53;100.00;100329.66;6140303;28;20054;-89
2023/06/30 08:26:53;;;;;;;7.40;6.30;;;;;;;20.43;100.00;100322.09;6137115;28;20227;-89
2023/06/30 08:29:55;;;;;;;10.27;7.60;;;;;;;20.44;100.00;100318.47;6147171;28;20122;-89
2023/06/30 08:32:57;;;;;;;7.32;6.53;;;;;;;20.62;100.00;100319.81;6137886;28;20039;-89
2023/06/30 08:36:00;;;;;;;10.70;6.25;;;;;;;20.61;100.00;100328.72;6137863;28;20053;-89
2023/06/30 08:39:01;;;;;;;9.70;5.90;;;;;;;20.29;100.00;100346.66;6136391;28;20090;-89
2023/06/30 08:42:05;;;;;;;10.45;6.75;;;;;;;19.87;100.00;100348.28;6138441;28;20032;-89
2023/06/30 08:45:08;;;;;;;8.73;6.45;;;;;;;19.54;100.00;100342.63;6136308;28;20070;-89
2023/06/30 08:48:12;;;;;;;10.48;6.68;;;;;;;19.32;100.00;100339.13;6146697;28;20828;-89
2023/06/30 08:51:14;;;;;;;8.90;6.95;;;;;;;19.18;100.00;100342.59;6146569;28;20047;-89
2023/06/30 08:54:18;;;;;;;11.63;7.50;;;;;;;19.13;100.00;100348.41;6139087;28;20054;-89
2023/06/30 08:57:20;;;;;;;8.27;7.07;;;;;;;19.11;100.00;100348.56;6146225;28;20418;-90
2023/06/30 09:00:24;;;;;;;9.48;6.47;;;;;;;19.11;100.00;100338.06;6135235;28;20470;-89
2023/06/30 09:03:26;;;;;;;11.60;7.45;;;;;;;19.17;100.00;100335.72;6135663;28;20058;-89
2023/06/30 09:06:30;;;;;;;8.10;7.22;;;;;;;19.26;100.00;100327.56;6126005;28;20047;-89
2023/06/30 09:09:45;;;;;;;9.93;7.63;;;;;;;19.43;100.00;100330.81;6136914;28;20134;-88
2023/06/30 09:12:50;;;;;;;9.35;7.20;;;;;;;19.53;100.00;100323.44;6134695;28;20039;-89
2023/06/30 09:15:59;;;;;;;11.32;7.93;;;;;;;19.72;100.00;100337.00;6138271;28;20042;-89
2023/06/30 09:19:01;;;;;;;10.15;7.20;;;;;;;19.67;100.00;100334.94;6140791;28;20039;-89
2023/06/30 09:22:05;;;;;;;10.90;8.15;;;;;;;19.71;100.00;100332.75;6137779;28;20528;-89
2023/06/30 09:25:26;;;;;;;11.50;7.22;;;;;;;19.96;100.00;100331.41;6138924;28;20051;-89
2023/06/30 09:28:34;;;;;;;11.40;7.30;;;;;;;20.23;100.00;100332.47;6130984;28;20047;-89
2023/06/30 09:31:36;;;;;;;10.82;7.43;;;;;;;20.63;100.00;100326.72;6130232;28;20043;-89
2023/06/30 09:34:40;;;;;;;7.88;6.75;;;;;;;20.76;100.00;100329.44;6140589;28;20055;-89
2023/06/30 09:37:44;;;;;;;8.25;6.25;;;;;;;20.80;100.00;100322.78;6138951;28;20059;-90
2023/06/30 09:40:48;;;;;;;8.70;6.90;;;;;;;20.89;100.00;100323.44;6143595;28;20046;-89
2023/06/30 09:43:56;;;;;;;10.20;7.03;;;;;;;20.93;100.00;100324.69;6139515;28;20656;-89
2023/06/30 09:46:57;;;;;;;8.93;7.07;;;;;;;20.87;100.00;100325.47;6141366;28;20053;-89
2023/06/30 09:49:59;;;;;;;8.60;7.03;;;;;;;20.68;100.00;100318.25;6141801;28;20861;-89
2023/06/30 09:53:01;;;;;;;7.72;5.95;;;;;;;20.64;100.00;100321.28;6142663;28;20517;-89
2023/06/30 09:56:04;;;;;;;8.02;5.55;;;;;;;20.97;100.00;100318.03;6140737;28;20221;-88
2023/06/30 09:59:05;;;;;;;7.88;5.47;;;;;;;21.45;100.00;100319.88;6140771;28;20520;-89
2023/06/30 10:02:10;;;;;;;8.35;6.15;;;;;;;21.93;100.00;100311.88;6154151;28;20088;-90
2023/06/30 10:05:12;;;;;;;6.50;5.53;;;;;;;22.32;100.00;100310.31;6134293;28;20074;-90
2023/06/30 10:08:14;;;;;;;10.57;5.68;;;;;;;22.45;100.00;100312.94;6132384;28;20545;-89
2023/06/30 10:11:16;;;;;;;10.38;5.57;;;;;;;22.39;100.00;100318.25;6139199;28;20050;-89
2023/06/30 10:14:28;;;;;;;7.90;5.20;;;;;;;22.12;100.00;100328.75;6119093;28;20478;-91
2023/06/30 10:17:30;;;;;;;9.23;5.78;;;;;;;21.88;100.00;100319.59;6128247;28;20114;-89
2023/06/30 10:20:32;;;;;;;10.35;5.57;;;;;;;21.72;100.00;100326.84;6144780;28;20046;-90
2023/06/30 10:23:50;;;;;;;8.63;5.43;;;;;;;21.69;100.00;100323.81;6151920;28;20050;-89
2023/06/30 10:26:53;;;;;;;12.52;5.88;;;;;;;21.89;100.00;100321.22;6126553;28;20537;-89
2023/06/30 10:29:55;;;;;;;6.53;4.80;;;;;;;22.12;100.00;100316.38;6148880;28;20255;-89
2023/06/30 10:32:57;;;;;;;5.85;4.75;;;;;;;22.52;100.00;100311.09;6144583;28;20772;-90
2023/06/30 10:36:00;;;;;;;6.25;5.38;;;;;;;22.88;100.00;100316.91;6136703;28;20055;-89
2023/06/30 10:39:03;;;;;;;7.00;4.40;;;;;;;22.89;100.00;100308.81;6133634;28;20046;-90
2023/06/30 10:42:05;;;;;;;7.57;4.65;;;;;;;22.67;100.00;100307.44;6129563;28;20129;-90
2023/06/30 10:45:08;;;;;;;5.93;4.60;;;;;;;22.27;100.00;100308.28;6130939;28;20047;-89
2023/06/30 10:48:17;;;;;;;6.72;4.00;;;;;;;21.90;100.00;100315.72;6148599;28;20053;-90
2023/06/30 10:51:21;;;;;;;4.97;3.70;;;;;;;21.43;100.00;100306.09;6141359;28;20418;-90
2023/06/30 10:54:47;;;;;;;5.43;3.70;;;;;;;20.92;100.00;100315.19;6135206;28;20497;-89
2023/06/30 10:57:52;;;;;;;6.53;4.95;;;;;;;20.53;100.00;100321.78;6146611;28;20062;-89
2023/06/30 11:01:05;;;;;;;4.90;3.60;;;;;;;20.01;100.00;100313.25;6139490;28;20053;-89
2023/06/30 11:04:09;;;;;;;4.22;2.92;;;;;;;19.97;100.00;100321.69;6136525;28;20039;-90
2023/06/30 11:07:29;;;;;;;5.18;2.95;;;;;;;20.18;100.00;100313.00;6139230;28;20043;-89
2023/06/30 11:10:32;;;;;;;5.38;3.40;;;;;;;20.30;100.00;100319.38;6138417;28;20052;-89
2023/06/30 11:13:37;;;;;;;3.75;3.45;;;;;;;20.49;100.00;100317.09;6135121;28;20047;-89
2023/06/30 11:17:08;;;;;;;4.82;2.92;;;;;;;20.57;100.00;100317.78;6137312;28;20039;-90
2023/06/30 11:20:13;;;;;;;3.13;2.83;;;;;;;20.83;100.00;100313.69;6142711;28;20520;-89
2023/06/30 11:23:18;;;;;;;6.68;2.92;;;;;;;21.36;100.00;100303.41;6129622;28;20047;-90
2023/06/30 11:26:20;;;;;;;6.13;2.65;;;;;;;21.80;100.00;100301.34;6128113;28;20051;-90
2023/06/30 11:29:22;;;;;;;4.47;2.70;;;;;;;22.44;100.00;100292.88;6134673;28;20054;-90
2023/06/30 11:32:29;;;;;;;4.18;2.60;;;;;;;22.92;100.00;100289.91;6142374;28;20039;-89
2023/06/30 11:35:37;;;;;;;2.90;2.25;;;;;;;23.09;100.00;100287.66;6138915;28;20043;-89
2023/06/30 11:38:43;;;;;;;7.68;2.28;;;;;;;22.91;100.00;100288.31;6126588;28;20413;-91
2023/06/30 11:41:45;;;;;;;4.93;2.03;;;;;;;22.63;100.00;100291.19;6128905;28;20047;-88
2023/06/30 11:44:54;;;;;;;3.90;2.20;;;;;;;22.53;100.00;100272.34;6146551;28;20494;-91
2023/06/30 11:47:56;;;;;;;7.80;2.28;;;;;;;22.78;100.00;100283.03;6150939;28;20121;-89
2023/06/30 11:50:58;;;;;;;4.53;2.90;;;;;;;23.44;100.00;100277.53;6145820;28;20047;-91
2023/06/30 11:54:00;;;;;;;3.47;2.53;;;;;;;23.72;100.00;100278.97;6138293;28;20043;-92
2023/06/30 11:57:03;;;;;;;3.40;2.20;;;;;;;23.72;100.00;100272.88;6145660;28;20118;-90
2023/06/30 12:00:17;;;;;;;5.22;2.47;;;;;;;23.88;100.00;100271.59;6141997;28;20558;-90
2023/06/30 12:03:40;;;;;;;4.03;2.10;;;;;;;23.57;100.00;100270.53;6139409;28;20050;-93
2023/06/30 12:06:43;;;;;;;5.53;2.45;;;;;;;23.22;100.00;100270.94;6156928;28;20050;-93
2023/06/30 12:09:59;;;;;;;2.95;2.17;;;;;;;23.00;100.00;100263.31;6146160;28;20178;-92
2023/06/30 12:13:07;;;;;;;4.03;2.35;;;;;;;22.77;100.00;100276.16;6139674;28;20438;-92
2023/06/30 12:16:09;;;;;;;3.60;2.67;;;;;;;22.71;100.00;100269.09;6140294;28;20047;-90
2023/06/30 12:19:12;;;;;;;2.55;1.92;;;;;;;22.80;100.00;100262.53;6129276;28;20041;-91
2023/06/30 12:22:24;;;;;;;4.45;2.60;;;;;;;22.89;100.00;100261.28;6133692;28;20636;-92
2023/06/30 12:25:29;;;;;;;4.22;2.30;;;;;;;23.01;100.00;100258.84;6129603;28;20036;-93
2023/06/30 12:28:32;;;;;;;3.70;2.10;;;;;;;23.13;100.00;100272.19;6136219;28;20135;-90
2023/06/30 12:31:34;;;;;;;4.13;2.47;;;;;;;23.27;100.00;100267.66;6120086;28;20583;-91
2023/06/30 12:34:36;;;;;;;4.18;2.25;;;;;;;23.30;100.00;100265.41;6135503;28;20505;-90
2023/06/30 12:37:39;;;;;;;3.08;2.17;;;;;;;23.57;100.00;100259.97;6135084;28;20083;-89
2023/06/30 12:40:41;;;;;;;7.63;2.08;;;;;;;23.84;100.00;100263.28;6139683;28;20054;-89
2023/06/30 12:43:43;;;;;;;4.30;1.58;;;;;;;24.04;100.00;100263.13;6131347;28;20048;-89
2023/06/30 12:46:45;;;;;;;5.60;1.55;;;;;;;24.10;100.00;100261.44;6136407;28;20043;-90
2023/06/30 12:49:47;;;;;;;3.50;1.60;;;;;;;24.21;100.00;100250.97;6142467;28;20043;-90
2023/06/30 12:52:49;;;;;;;4.50;1.60;;;;;;;24.52;100.00;100248.44;6131481;28;20046;-89
2023/06/30 12:55:51;;;;;;;4.88;1.80;;;;;;;25.30;100.00;100248.56;6132045;28;20058;-89
2023/06/30 12:58:53;;;;;;;2.63;1.35;;;;;;;25.66;100.00;100243.34;6126453;28;20127;-91
2023/06/30 13:01:55;;;;;;;6.10;1.83;;;;;;;25.74;100.00;100233.22;6142508;28;20518;-89
2023/06/30 13:04:57;;;;;;;2.95;1.40;;;;;;;25.92;100.00;100229.69;6126957;28;20517;-90
2023/06/30 13:07:59;;;;;;;3.13;1.55;;;;;;;26.02;100.00;100233.63;6126732;28;20516;-89
2023/06/30 13:11:02;;;;;;;2.58;1.30;;;;;;;25.76;100.00;100230.31;6147334;28;20044;-88
2023/06/30 13:14:04;;;;;;;3.05;1.45;;;;;;;25.33;100.00;100234.84;6121569;28;20039;-89
2023/06/30 13:17:06;;;;;;;4.07;1.73;;;;;;;24.81;100.00;100234.47;6131929;28;20054;-90
2023/06/30 13:20:09;;;;;;;1.95;1.20;;;;;;;24.44;100.00;100223.06;6142277;28;20043;-88
2023/06/30 13:23:11;;;;;;;2.38;1.10;;;;;;;24.31;100.00;100229.31;6137577;28;20051;-89
2023/06/30 13:26:34;;;;;;;1.70;1.30;;;;;;;23.98;100.00;100224.34;6133720;28;20046;-89
2023/06/30 13:29:36;;;;;;;5.90;1.40;;;;;;;23.90;100.00;100222.78;6143595;28;20051;-89
2023/06/30 13:32:39;;;;;;;3.08;1.50;;;;;;;23.75;100.00;100225.75;6141439;28;20138;-90
2023/06/30 13:35:41;;;;;;;2.97;1.13;;;;;;;23.85;100.00;100231.34;6136484;28;20054;-89
2023/06/30 13:38:44;;;;;;;1.55;1.08;;;;;;;24.36;100.00;100223.34;6138786;28;20050;-88
2023/06/30 13:41:46;;;;;;;3.90;1.25;;;;;;;24.83;100.00;100221.03;6143240;28;20051;-89
2023/06/30 13:44:48;;;;;;;1.77;1.10;;;;;;;25.10;100.00;100227.59;6125110;28;20039;-89
2023/06/30 13:47:50;;;;;;;2.38;1.20;;;;;;;25.53;92.46;100225.81;6136857;28;20448;-89
2023/06/30 13:50:52;;;;;;;1.42;1.20;;;;;;;25.89;100.00;100219.56;6143890;28;20047;-90
2023/06/30 13:53:54;;;;;;;2.80;1.40;;;;;;;26.31;89.25;100214.13;6144207;28;20047;-89
2023/06/30 13:56:57;;;;;;;1.58;1.17;;;;;;;25.83;86.43;100216.97;6141164;28;20044;-89